Time;durP1;ratioP1;P1;durP2;ratioP2;P2;SDS_P1;SDS_P2;PMS_P1;PMS_P2;Temp;Humidity;BMP_temperature;BMP_pressure;BME280_temperature;BME280_humidity;BME280_pressure;Samples;Min_cycle;Max_cycle;Signal;HPM_P1;HPM_P2
2022/10/02 00:00:21;;;;;;;25.08;8.20;;;;;;;11.37;100.00;101435.47;4954246;29;20047;-79
2022/10/02 00:02:53;;;;;;;24.80;7.93;;;;;;;11.23;100.00;101433.69;4954376;29;20131;-78
2022/10/02 00:05:27;;;;;;;24.80;9.35;;;;;;;11.16;100.00;101447.84;4954201;29;20033;-79
2022/10/02 00:08:24;;;;;;;26.73;8.20;;;;;;;11.04;100.00;101443.38;5016175;28;20496;-79
2022/10/02 00:11:11;;;;;;;22.70;8.32;;;;;;;10.90;100.00;101437.19;5053194;28;20037;-78
2022/10/02 00:13:45;;;;;;;20.38;8.55;;;;;;;10.82;100.00;101444.56;5054339;28;20025;-79
2022/10/02 00:16:35;;;;;;;17.75;8.73;;;;;;;10.62;100.00;101426.72;5053979;28;20074;-77
2022/10/02 00:19:01;;;;;;;20.83;8.05;;;;;;;10.64;100.00;101442.94;5054021;28;20029;-79
2022/10/02 00:21:43;;;;;;;26.77;9.35;;;;;;;10.42;100.00;101419.16;5054035;28;20042;-79
2022/10/02 00:24:14;;;;;;;23.10;8.20;;;;;;;10.49;100.00;101447.16;5053931;28;20024;-79
2022/10/02 00:27:04;;;;;;;25.40;8.98;;;;;;;10.39;100.00;101453.72;5053604;28;20029;-80
2022/10/02 00:29:50;;;;;;;22.77;8.27;;;;;;;10.33;100.00;101454.06;5053759;28;20060;-80
2022/10/02 00:32:40;;;;;;;24.83;7.43;;;;;;;10.25;100.00;101456.19;5053657;28;20489;-80
2022/10/02 00:35:50;;;;;;;26.30;8.30;;;;;;;10.20;100.00;101455.56;5053626;28;20098;-79
2022/10/02 00:38:19;;;;;;;18.90;7.78;;;;;;;10.18;100.00;101458.22;4992361;28;20417;-79
2022/10/02 00:40:53;;;;;;;23.08;8.77;;;;;;;10.15;100.00;101457.56;4992187;28;20066;-79
2022/10/02 00:44:04;;;;;;;24.55;7.68;;;;;;;10.18;100.00;101462.53;4992349;28;20121;-79
2022/10/02 00:46:52;;;;;;;27.13;8.65;;;;;;;10.12;100.00;101443.03;4992180;28;20045;-79
2022/10/02 00:49:31;;;;;;;23.98;7.72;;;;;;;10.23;100.00;101455.44;4992378;28;20100;-79
2022/10/02 00:52:08;;;;;;;24.58;6.82;;;;;;;10.25;100.00;101451.88;4992116;28;20096;-79
2022/10/02 00:54:48;;;;;;;17.75;6.55;;;;;;;10.29;100.00;101450.78;4992205;28;20069;-79
2022/10/02 00:57:40;;;;;;;28.45;8.10;;;;;;;10.33;100.00;101454.91;4991933;28;20069;-79
2022/10/02 01:00:10;;;;;;;22.50;6.50;;;;;;;10.40;100.00;101452.81;4991769;28;20108;-79
2022/10/02 01:02:35;;;;;;;28.90;6.85;;;;;;;10.39;100.00;101456.31;4991572;28;20046;-78
2022/10/02 01:05:06;;;;;;;25.70;7.70;;;;;;;10.34;100.00;101447.97;4991573;28;20033;-79
2022/10/02 01:07:34;;;;;;;26.65;6.82;;;;;;;10.39;100.00;101447.72;4991994;28;20613;-79
2022/10/02 01:09:59;;;;;;;31.88;6.93;;;;;;;10.42;100.00;101448.41;4991903;28;20038;-79
2022/10/02 01:12:25;;;;;;;32.70;6.82;;;;;;;10.43;100.00;101446.66;4991861;28;20034;-79
2022/10/02 01:14:50;;;;;;;27.60;6.15;;;;;;;10.35;100.00;101439.31;5016826;28;20073;-79
2022/10/02 01:17:23;;;;;;;33.83;7.43;;;;;;;10.46;100.00;101446.50;5053052;28;20461;-79
2022/10/02 01:19:49;;;;;;;28.05;6.95;;;;;;;10.29;100.00;101418.97;5053038;28;20377;-79
2022/10/02 01:22:36;;;;;;;26.00;6.15;;;;;;;10.49;100.00;101436.84;5053302;28;20036;-79
2022/10/02 01:25:04;;;;;;;28.58;5.97;;;;;;;10.52;100.00;101441.84;5053028;28;20029;-79
2022/10/02 01:27:31;;;;;;;31.90;6.53;;;;;;;10.58;100.00;101438.09;5052507;28;20405;-79
2022/10/02 01:32:34;;;;;;;28.50;6.70;;;;;;;10.67;100.00;101444.53;4995360;26;20057;-78
2022/10/02 01:35:00;;;;;;;35.05;7.10;;;;;;;10.69;100.00;101450.44;5013107;28;20041;-79
2022/10/02 01:37:29;;;;;;;28.50;5.90;;;;;;;10.72;100.00;101452.88;5013318;28;20026;-79
2022/10/02 01:40:01;;;;;;;30.95;6.68;;;;;;;10.69;100.00;101446.09;5013142;28;20030;-78
2022/10/02 01:42:27;;;;;;;32.97;7.85;;;;;;;10.60;100.00;101415.59;5012815;28;20033;-78
2022/10/02 01:44:53;;;;;;;29.33;6.93;;;;;;;10.80;100.00;101446.34;5013293;28;20018;-78
2022/10/02 01:47:29;;;;;;;34.05;6.40;;;;;;;10.70;100.00;101428.84;5013315;28;20037;-79
2022/10/02 01:50:11;;;;;;;31.65;6.35;;;;;;;10.74;100.00;101430.38;5013178;28;20438;-79
2022/10/02 01:53:00;;;;;;;28.48;6.07;;;;;;;10.83;100.00;101443.63;5012928;28;20041;-79
2022/10/02 01:55:34;;;;;;;35.10;6.03;;;;;;;10.89;100.00;101451.03;5012920;28;20387;-79
2022/10/02 01:58:23;;;;;;;35.05;8.02;;;;;;;10.65;100.00;101416.19;5012902;28;20108;-79
2022/10/02 02:00:48;;;;;;;30.10;7.07;;;;;;;10.95;100.00;101449.88;5012903;28;20526;-78
2022/10/02 02:03:28;;;;;;;30.98;6.15;;;;;;;10.92;100.00;101439.72;5012826;28;20117;-78
2022/10/02 02:05:58;;;;;;;32.47;6.38;;;;;;;11.00;100.00;101458.19;5013218;28;20118;-78
2022/10/02 02:08:44;;;;;;;30.30;6.40;;;;;;;11.01;100.00;101457.31;5012985;28;20030;-79
2022/10/02 02:11:14;;;;;;;31.50;6.20;;;;;;;11.00;100.00;101453.03;5012752;28;20034;-79
2022/10/02 02:14:16;;;;;;;26.42;6.85;;;;;;;11.03;100.00;101467.56;5012448;28;20032;-79
2022/10/02 02:16:54;;;;;;;29.73;6.25;;;;;;;11.01;100.00;101448.69;5016789;28;20022;-78
2022/10/02 02:19:28;;;;;;;37.03;6.30;;;;;;;11.15;100.00;101462.53;5016501;28;20081;-79
2022/10/02 02:21:56;;;;;;;37.63;6.97;;;;;;;11.16;100.00;101460.78;5016524;28;20052;-78
2022/10/02 02:24:31;;;;;;;29.02;6.47;;;;;;;11.12;100.00;101461.88;5016206;28;20022;-79
2022/10/02 02:26:59;;;;;;;34.95;6.57;;;;;;;11.11;100.00;101455.00;5016382;28;20022;-79
2022/10/02 02:29:26;;;;;;;33.67;6.60;;;;;;;11.12;100.00;101457.53;5016313;28;20033;-79
2022/10/02 02:31:56;;;;;;;34.72;6.15;;;;;;;11.01;100.00;101436.63;5016288;28;20046;-78
2022/10/02 02:34:46;;;;;;;29.08;6.70;;;;;;;11.13;100.00;101464.38;5016272;28;20355;-79
2022/10/02 02:37:17;;;;;;;38.10;7.10;;;;;;;11.04;100.00;101445.97;5015436;28;20124;-78
2022/10/02 02:39:49;;;;;;;;;;;;;;;11.14;100.00;101465.22;5016638;28;20052;-79
2022/10/02 02:42:21;;;;;;;32.40;6.15;;;;;;;11.16;100.00;101460.78;5016142;28;19913;-79
2022/10/02 02:44:54;;;;;;;34.55;7.03;;;;;;;11.18;100.00;101461.53;5016228;28;20018;-79
2022/10/02 02:47:25;;;;;;;30.20;7.20;;;;;;;11.12;100.00;101444.63;5015970;28;20038;-79
2022/10/02 02:50:00;;;;;;;34.47;6.82;;;;;;;11.16;100.00;101442.69;5015854;28;20557;-78
2022/10/02 02:52:35;;;;;;;36.50;7.25;;;;;;;11.38;100.00;101470.75;5015816;28;20040;-79
2022/10/02 02:55:14;;;;;;;35.50;7.18;;;;;;;11.39;100.00;101464.66;5015950;28;20022;-79
2022/10/02 02:57:48;;;;;;;38.60;7.65;;;;;;;11.40;100.00;101461.16;5015873;28;20033;-79
2022/10/02 03:00:14;;;;;;;37.78;7.63;;;;;;;11.51;100.00;101468.34;5015754;28;20022;-79
2022/10/02 03:02:40;;;;;;;36.83;7.07;;;;;;;11.48;100.00;101469.31;5016077;28;20386;-79
2022/10/02 03:05:24;;;;;;;41.15;7.97;;;;;;;11.55;100.00;101468.06;5015840;28;20037;-79
2022/10/02 03:07:53;;;;;;;31.17;7.20;;;;;;;11.51;100.00;101465.75;5015652;28;20076;-77
2022/10/02 03:10:30;;;;;;;32.72;8.10;;;;;;;11.33;100.00;101439.16;5015591;28;20033;-79
2022/10/02 03:13:04;;;;;;;29.20;7.28;;;;;;;11.46;100.00;101466.00;5015403;28;20036;-78
2022/10/02 03:15:47;;;;;;;28.25;6.63;;;;;;;11.32;100.00;101442.69;5015628;28;20033;-79
2022/10/02 03:18:40;;;;;;;32.60;6.53;;;;;;;11.43;100.00;101464.41;5015684;28;20441;-78
2022/10/02 03:21:15;;;;;;;23.90;6.20;;;;;;;11.29;100.00;101437.66;5015134;28;20492;-79
2022/10/02 03:24:00;;;;;;;23.67;6.05;;;;;;;11.37;100.00;101448.41;5015409;28;20366;-78
2022/10/02 03:26:44;;;;;;;27.15;6.28;;;;;;;11.55;100.00;101465.47;5014343;28;20034;-79
2022/10/02 03:29:21;;;;;;;28.23;6.20;;;;;;;11.64;100.00;101475.31;5015025;28;20072;-79
2022/10/02 03:31:48;;;;;;;24.17;5.50;;;;;;;11.68;100.00;101483.72;5015055;28;20048;-79
2022/10/02 03:34:15;;;;;;;25.60;6.53;;;;;;;11.72;100.00;101483.47;5015050;28;20018;-79
2022/10/02 03:36:41;;;;;;;22.08;6.13;;;;;;;11.74;100.00;101476.44;5015172;28;20030;-79
2022/10/02 03:39:07;;;;;;;20.35;5.63;;;;;;;11.75;100.00;101475.50;5015084;28;20029;-79
2022/10/02 03:41:32;;;;;;;23.75;6.03;;;;;;;11.72;100.00;101470.53;5015082;28;20018;-79
2022/10/02 03:43:58;;;;;;;18.80;5.95;;;;;;;11.67;100.00;101469.94;5014779;28;20026;-79
2022/10/02 03:46:23;;;;;;;21.38;6.07;;;;;;;11.80;100.00;101484.78;5014838;28;20034;-79
2022/10/02 03:48:48;;;;;;;26.88;5.75;;;;;;;11.80;100.00;101483.06;5014797;28;20033;-80
2022/10/02 03:51:13;;;;;;;22.00;5.32;;;;;;;11.79;100.00;101473.56;5014873;28;20025;-79
2022/10/02 03:53:39;;;;;;;24.15;5.93;;;;;;;11.74;100.00;101471.25;5014989;28;20129;-80
2022/10/02 03:56:33;;;;;;;20.45;5.68;;;;;;;11.58;100.00;101434.25;5014762;28;20034;-80
2022/10/02 03:59:01;;;;;;;20.77;5.60;;;;;;;11.78;100.00;101480.50;5013030;28;20038;-80
2022/10/02 04:01:34;;;;;;;18.98;5.13;;;;;;;11.78;100.00;101487.44;5014741;28;20496;-80
2022/10/02 04:04:17;;;;;;;15.38;4.15;;;;;;;11.64;100.00;101462.38;5014602;28;20045;-81
2022/10/02 04:07:06;;;;;;;14.77;4.32;;;;;;;11.76;100.00;101484.94;5014628;28;20026;-80
2022/10/02 04:09:52;;;;;;;17.02;4.38;;;;;;;11.74;100.00;101484.19;5014299;28;20497;-81
2022/10/02 04:12:27;;;;;;;12.77;3.88;;;;;;;11.59;100.00;101461.78;5013417;28;20030;-80
2022/10/02 04:15:15;;;;;;;15.75;4.20;;;;;;;11.76;100.00;101484.94;5014260;28;20060;-79
2022/10/02 04:17:46;;;;;;;13.98;3.92;;;;;;;11.75;100.00;101480.69;5014111;28;20040;-79
2022/10/02 04:20:19;;;;;;;13.63;4.40;;;;;;;11.74;100.00;101480.78;5014503;28;20149;-79
2022/10/02 04:22:54;;;;;;;15.20;4.07;;;;;;;11.68;100.00;101479.38;5014460;28;20077;-79
2022/10/02 04:25:28;;;;;;;13.90;3.55;;;;;;;11.56;100.00;101472.31;5014174;28;20026;-79
2022/10/02 04:27:59;;;;;;;13.10;3.70;;;;;;;11.54;100.00;101473.31;5014197;28;20022;-79
2022/10/02 04:30:25;;;;;;;16.33;4.57;;;;;;;11.47;100.00;101468.50;5013562;28;20386;-79
2022/10/02 04:32:51;;;;;;;16.70;4.55;;;;;;;11.42;100.00;101465.34;5014150;28;20095;-79
2022/10/02 04:35:19;;;;;;;16.65;4.70;;;;;;;11.39;100.00;101469.84;5014038;28;20034;-79
2022/10/02 04:37:53;;;;;;;18.80;4.97;;;;;;;11.34;100.00;101474.44;5014335;28;20032;-79
2022/10/02 04:41:07;;;;;;;16.98;4.50;;;;;;;11.28;100.00;101473.03;5014038;28;20489;-78
2022/10/02 04:43:38;;;;;;;17.48;5.78;;;;;;;11.32;100.00;101489.22;4995616;28;20044;-77
2022/10/02 04:46:26;;;;;;;17.67;5.35;;;;;;;11.34;100.00;101497.72;5013690;28;20048;-77
2022/10/02 04:49:13;;;;;;;18.52;5.72;;;;;;;11.36;100.00;101507.06;5013305;28;20430;-78
2022/10/02 04:51:48;;;;;;;18.80;6.60;;;;;;;11.26;100.00;101494.72;5013781;28;20522;-81
2022/10/02 04:54:55;;;;;;;16.67;6.30;;;;;;;11.17;100.00;101480.53;5013925;28;20038;-79
2022/10/02 04:57:37;;;;;;;20.23;6.90;;;;;;;11.22;100.00;101493.22;4934177;29;20051;-79
2022/10/02 05:00:17;;;;;;;18.10;6.68;;;;;;;11.28;100.00;101518.72;4934186;29;20484;-79
2022/10/02 05:02:47;;;;;;;21.38;6.97;;;;;;;11.24;100.00;101517.25;4934438;29;20373;-79
2022/10/02 05:05:50;;;;;;;21.30;7.22;;;;;;;11.23;100.00;101513.81;4934260;29;20505;-79
2022/10/02 05:08:34;;;;;;;21.05;7.13;;;;;;;11.20;100.00;101513.97;4933985;29;20048;-78
2022/10/02 05:11:28;;;;;;;22.80;7.60;;;;;;;11.22;100.00;101522.50;4934046;29;20043;-81
2022/10/02 05:14:12;;;;;;;19.90;6.90;;;;;;;11.23;100.00;101515.56;4934267;29;20126;-79
2022/10/02 05:16:47;;;;;;;26.80;8.30;;;;;;;11.29;100.00;101516.06;4933717;29;20032;-80
2022/10/02 05:19:14;;;;;;;29.27;8.38;;;;;;;11.36;100.00;101516.56;4933926;29;20047;-80
2022/10/02 05:22:10;;;;;;;25.73;9.20;;;;;;;11.38;100.00;101517.31;4933958;29;20039;-79
2022/10/02 05:24:49;;;;;;;24.38;7.85;;;;;;;11.32;100.00;101508.16;4933918;29;20027;-80
2022/10/02 05:27:40;;;;;;;24.30;8.18;;;;;;;11.39;100.00;101526.72;4933396;29;20043;-78
2022/10/02 05:30:08;;;;;;;;;;;;;;;11.34;100.00;101527.00;4933978;29;20424;-78
2022/10/02 05:33:02;;;;;;;22.35;8.48;;;;;;;11.20;100.00;101516.56;4933515;29;19991;-79
2022/10/02 05:35:43;;;;;;;29.48;9.63;;;;;;;11.29;100.00;101536.75;5013012;28;20414;-76
2022/10/02 05:38:22;;;;;;;31.48;10.10;;;;;;;11.29;100.00;101539.31;5013507;28;20540;-79
2022/10/02 05:41:04;;;;;;;30.77;11.02;;;;;;;11.33;100.00;101545.19;5013029;28;20480;-79
2022/10/02 05:43:48;;;;;;;33.35;12.00;;;;;;;11.32;100.00;101533.16;5013189;28;20374;-79
2022/10/02 05:46:21;;;;;;;33.55;12.75;;;;;;;11.37;100.00;101538.91;5012983;28;20030;-79
2022/10/02 05:49:05;;;;;;;41.30;13.52;;;;;;;11.28;100.00;101534.25;5013006;28;20516;-80
2022/10/02 05:51:40;;;;;;;40.63;13.98;;;;;;;11.35;100.00;101551.09;5017104;28;20033;-79
2022/10/02 05:54:28;;;;;;;39.22;15.38;;;;;;;11.29;100.00;101536.75;5016862;28;20425;-79
2022/10/02 05:56:59;;;;;;;41.00;16.33;;;;;;;11.38;100.00;101541.41;4975855;28;20049;-79
2022/10/02 05:59:48;;;;;;;43.03;16.15;;;;;;;11.44;100.00;101541.09;4975887;28;20450;-81
2022/10/02 06:02:36;;;;;;;46.72;16.63;;;;;;;11.41;100.00;101532.66;4975538;28;20066;-79
2022/10/02 06:05:12;;;;;;;44.42;17.75;;;;;;;11.52;100.00;101538.06;4975596;28;20470;-79
2022/10/02 06:07:42;;;;;;;40.42;16.13;;;;;;;11.54;100.00;101531.06;4975450;28;20141;-80
2022/10/02 06:10:15;;;;;;;45.05;16.77;;;;;;;11.59;100.00;101539.38;4975665;28;20391;-80
2022/10/02 06:13:07;;;;;;;39.95;16.83;;;;;;;11.59;100.00;101554.91;4975544;28;20034;-79
2022/10/02 06:15:49;;;;;;;49.60;16.88;;;;;;;11.66;100.00;101563.16;4975431;28;20078;-79
2022/10/02 06:18:22;;;;;;;41.42;16.67;;;;;;;11.76;100.00;101580.69;4974997;28;20031;-76
2022/10/02 06:20:54;;;;;;;42.22;16.27;;;;;;;11.80;100.00;101573.63;4995199;28;20407;-75
2022/10/02 06:23:24;;;;;;;46.15;16.63;;;;;;;11.81;100.00;101569.28;4995092;28;20418;-75
2022/10/02 06:25:58;;;;;;;50.95;16.95;;;;;;;11.96;100.00;101582.19;4994756;28;20034;-77
2022/10/02 06:28:33;;;;;;;37.92;15.48;;;;;;;12.00;100.00;101588.88;4994810;28;20572;-76
2022/10/02 06:31:28;;;;;;;41.67;15.65;;;;;;;12.06;100.00;101579.91;4994050;28;20417;-76
2022/10/02 06:33:53;;;;;;;43.40;14.95;;;;;;;12.12;100.00;101573.56;4955062;28;20047;-78
2022/10/02 06:36:26;;;;;;;42.25;14.68;;;;;;;12.14;100.00;101582.06;4974826;28;20038;-77
2022/10/02 06:39:24;;;;;;;38.72;14.25;;;;;;;12.21;100.00;101583.38;4975165;28;20054;-77
2022/10/02 06:42:14;;;;;;;34.13;12.85;;;;;;;12.28;100.00;101576.91;4975148;28;20030;-74
2022/10/02 06:47:21;;;;;;;33.17;12.10;;;;;;;12.23;100.00;101572.00;5110689;27;20377;-77
2022/10/02 06:50:22;;;;;;;31.23;11.98;;;;;;;12.42;100.00;101604.59;5111078;28;20058;-75
2022/10/02 06:53:12;;;;;;;33.70;12.48;;;;;;;12.47;100.00;101606.00;5111009;28;20032;-77
2022/10/02 06:55:48;;;;;;;34.72;11.50;;;;;;;12.42;100.00;101586.47;5110939;28;20344;-76
2022/10/02 06:58:24;;;;;;;33.05;11.07;;;;;;;12.60;100.00;101608.72;5109645;28;20466;-77
2022/10/02 07:01:36;;;;;;;35.35;9.65;;;;;;;12.33;100.00;101565.38;5110921;28;20020;-79
2022/10/02 07:04:11;;;;;;;31.55;9.98;;;;;;;12.63;100.00;101614.53;5110675;28;20031;-81
2022/10/02 07:06:54;;;;;;;26.77;8.52;;;;;;;12.67;100.00;101624.72;5110899;28;20071;-78
2022/10/02 07:09:41;;;;;;;32.00;9.90;;;;;;;12.71;100.00;101621.88;5110666;28;20027;-78
2022/10/02 07:12:39;;;;;;;31.67;8.88;;;;;;;12.61;100.00;101584.47;5110771;28;20446;-78
2022/10/02 07:15:16;;;;;;;29.98;9.18;;;;;;;12.87;100.00;101614.81;5110792;28;20028;-78
2022/10/02 07:17:51;;;;;;;25.02;8.63;;;;;;;12.82;100.00;101597.91;5110490;28;20062;-78
2022/10/02 07:20:45;;;;;;;27.70;9.65;;;;;;;13.01;100.00;101618.38;5110487;28;20023;-77
2022/10/02 07:23:25;;;;;;;30.38;9.20;;;;;;;13.04;100.00;101615.56;5110400;28;20031;-79
2022/10/02 07:26:01;;;;;;;26.33;9.35;;;;;;;12.95;100.00;101605.75;5110227;28;20032;-78
2022/10/02 07:28:37;;;;;;;25.00;10.18;;;;;;;13.09;100.00;101631.72;5110437;28;20024;-77
2022/10/02 07:31:40;;;;;;;23.27;9.00;;;;;;;13.15;100.00;101633.91;5110083;28;20028;-79
2022/10/02 07:34:27;;;;;;;18.70;8.93;;;;;;;13.21;100.00;101633.56;5066887;28;20039;-78
2022/10/02 07:36:58;;;;;;;22.45;8.52;;;;;;;13.30;100.00;101637.38;5067431;28;20037;-78
2022/10/02 07:39:34;;;;;;;26.85;9.30;;;;;;;13.25;100.00;101616.06;5067240;28;20085;-78
2022/10/02 07:42:21;;;;;;;25.05;9.32;;;;;;;13.45;100.00;101636.41;5067283;28;20136;-78
2022/10/02 07:45:05;;;;;;;24.40;9.32;;;;;;;13.55;100.00;101637.50;5066972;28;20045;-79
2022/10/02 07:47:55;;;;;;;27.48;10.00;;;;;;;13.69;100.00;101641.84;5066803;28;20195;-80
2022/10/02 07:50:36;;;;;;;20.23;9.32;;;;;;;13.80;100.00;101635.97;5067132;28;20024;-80
2022/10/02 07:53:27;;;;;;;;;;;;;;;13.98;100.00;101651.22;5049992;28;20040;-80
2022/10/02 07:55:55;;;;;;;23.98;9.35;;;;;;;14.01;100.00;101644.97;5066903;28;19916;-79
2022/10/02 07:58:39;;;;;;;23.10;9.20;;;;;;;14.20;100.00;101647.22;5053201;28;20057;-79
2022/10/02 08:01:14;;;;;;;20.35;9.18;;;;;;;14.28;100.00;101643.19;5053628;28;20036;-79
2022/10/02 08:03:54;;;;;;;23.85;9.75;;;;;;;14.36;100.00;101647.91;5053555;28;20044;-80
2022/10/02 08:06:20;;;;;;;22.35;9.52;;;;;;;14.31;100.00;101650.78;5036307;28;20392;-79
2022/10/02 08:09:01;;;;;;;21.75;10.23;;;;;;;14.35;100.00;101652.25;5053640;28;20032;-78
2022/10/02 08:11:32;;;;;;;25.40;10.52;;;;;;;14.44;100.00;101666.38;5084145;28;20372;-76
2022/10/02 08:14:11;;;;;;;25.40;9.60;;;;;;;14.43;100.00;101658.69;5095601;28;20032;-77
2022/10/02 08:16:46;;;;;;;22.30;10.18;;;;;;;14.58;100.00;101674.16;5095638;28;20039;-73
2022/10/02 08:19:15;;;;;;;19.92;8.75;;;;;;;14.63;100.00;101682.47;5095118;28;20058;-77
2022/10/02 08:21:48;;;;;;;20.25;9.38;;;;;;;14.71;100.00;101692.38;5095813;28;20031;-78
2022/10/02 08:24:23;;;;;;;22.23;9.38;;;;;;;14.62;100.00;101683.41;5095708;28;20032;-77
2022/10/02 08:26:55;;;;;;;18.05;9.38;;;;;;;14.60;100.00;101677.47;5095532;28;20080;-77
2022/10/02 08:29:39;;;;;;;19.80;8.85;;;;;;;14.74;100.00;101686.13;5095355;28;20028;-82
2022/10/02 08:32:10;;;;;;;22.58;8.07;;;;;;;14.72;100.00;101688.81;5095495;28;20028;-79
2022/10/02 08:34:35;;;;;;;;;;;;;;;14.84;100.00;101698.41;5095844;28;20024;-78
2022/10/02 08:37:13;;;;;;;18.83;7.82;;;;;;;14.85;100.00;101701.88;5094182;28;19968;-77
2022/10/02 08:40:15;;;;;;;18.08;7.50;;;;;;;14.99;100.00;101695.72;5095671;28;20052;-77
2022/10/02 08:42:44;;;;;;;21.02;7.78;;;;;;;15.01;100.00;101704.25;5095502;28;20024;-80
2022/10/02 08:45:44;;;;;;;18.55;7.38;;;;;;;14.95;100.00;101709.88;5095190;28;20047;-79
2022/10/02 08:48:22;;;;;;;21.98;7.47;;;;;;;15.05;100.00;101714.34;5094816;28;20030;-76
2022/10/02 08:51:11;;;;;;;19.48;6.65;;;;;;;15.15;100.00;101722.38;5094919;28;20031;-77
2022/10/02 08:54:04;;;;;;;16.77;6.18;;;;;;;15.19;100.00;101716.00;5095089;28;20020;-79
2022/10/02 08:56:57;;;;;;;17.10;6.00;;;;;;;15.19;100.00;101722.03;5094984;28;20387;-76
2022/10/02 08:59:24;;;;;;;17.05;6.20;;;;;;;15.20;100.00;101730.69;5094968;28;20028;-77
2022/10/02 09:02:33;;;;;;;15.10;5.55;;;;;;;15.16;100.00;101718.84;5095125;28;20046;-78
2022/10/02 09:05:19;;;;;;;14.77;5.28;;;;;;;15.20;100.00;101739.31;5094801;28;20028;-77
2022/10/02 09:08:02;;;;;;;18.63;5.68;;;;;;;15.14;100.00;101746.69;5094299;28;20058;-76
2022/10/02 09:10:44;;;;;;;18.05;5.18;;;;;;;15.11;100.00;101746.91;5094376;28;20068;-76
2022/10/02 09:13:44;;;;;;;15.98;4.70;;;;;;;15.11;100.00;101747.75;5094675;28;20016;-79
2022/10/02 09:16:09;;;;;;;15.02;4.97;;;;;;;15.04;100.00;101743.06;5094446;28;20047;-76
2022/10/02 09:18:54;;;;;;;19.23;5.22;;;;;;;15.02;100.00;101750.13;5093303;28;20105;-78
2022/10/02 09:21:22;;;;;;;19.95;4.95;;;;;;;15.06;100.00;101739.44;5094578;28;20023;-79
2022/10/02 09:24:02;;;;;;;19.23;4.93;;;;;;;15.12;100.00;101746.81;5094501;28;20120;-79
2022/10/02 09:26:27;;;;;;;17.20;5.03;;;;;;;15.19;100.00;101745.47;5094367;28;20468;-78
2022/10/02 09:29:11;;;;;;;14.02;4.70;;;;;;;15.30;100.00;101746.50;5094156;28;20035;-78
2022/10/02 09:32:13;;;;;;;15.80;4.38;;;;;;;15.43;100.00;101748.16;5094428;28;20032;-79
2022/10/02 09:35:23;;;;;;;13.50;3.97;;;;;;;15.38;100.00;101712.97;5094228;28;20069;-78
2022/10/02 09:38:28;;;;;;;16.30;4.78;;;;;;;15.60;99.04;101747.03;5094314;28;20032;-79
2022/10/02 09:41:06;;;;;;;16.40;4.50;;;;;;;15.72;98.18;101753.97;5092912;28;20024;-79
2022/10/02 09:44:08;;;;;;;16.52;4.70;;;;;;;15.76;97.56;101758.03;5094258;28;20028;-79
2022/10/02 09:47:01;;;;;;;14.25;3.97;;;;;;;15.86;97.02;101753.03;5093934;28;20051;-79
2022/10/02 09:49:41;;;;;;;13.98;3.58;;;;;;;15.96;94.66;101759.25;5093786;28;20467;-78
2022/10/02 09:52:34;;;;;;;16.45;3.72;;;;;;;16.09;94.16;101768.78;5093964;28;20028;-77
2022/10/02 09:55:35;;;;;;;15.23;3.88;;;;;;;16.08;94.51;101762.75;5094021;28;20128;-76
2022/10/02 09:58:04;;;;;;;16.17;4.13;;;;;;;16.06;93.46;101762.03;5093922;28;20027;-81
2022/10/02 10:00:32;;;;;;;15.18;3.60;;;;;;;16.04;93.60;101769.13;5093961;28;20043;-79
2022/10/02 10:03:06;;;;;;;16.73;3.60;;;;;;;15.96;92.11;101776.66;5093837;28;20035;-79
2022/10/02 10:05:41;;;;;;;11.00;2.67;;;;;;;15.91;93.73;101750.09;5093595;28;20020;-78
2022/10/02 10:08:31;;;;;;;13.55;2.80;;;;;;;16.16;92.08;101770.03;5093554;28;20035;-80
2022/10/02 10:11:18;;;;;;;14.45;2.90;;;;;;;16.27;92.14;101763.09;5093727;28;20027;-72
2022/10/02 10:14:11;;;;;;;11.98;2.67;;;;;;;16.25;90.47;101761.56;5093566;28;20024;-79
2022/10/02 10:17:08;;;;;;;13.35;2.92;;;;;;;16.41;89.75;101767.31;5093632;28;20035;-81
2022/10/02 10:19:58;;;;;;;13.60;3.17;;;;;;;16.52;88.79;101771.75;5093744;28;20035;-80
2022/10/02 10:23:02;;;;;;;13.18;3.22;;;;;;;16.66;87.58;101774.19;5093279;28;20031;-81
2022/10/02 10:25:55;;;;;;;16.95;3.67;;;;;;;16.69;88.25;101778.38;5093382;28;20059;-81
2022/10/02 10:28:50;;;;;;;12.88;2.65;;;;;;;16.69;84.86;101784.41;5092236;28;20452;-82
2022/10/02 10:31:18;;;;;;;13.05;2.78;;;;;;;16.49;84.63;101790.22;5011416;28;20061;-81
2022/10/02 10:34:01;;;;;;;11.75;2.70;;;;;;;16.48;84.57;101799.00;5011539;28;20046;-79
2022/10/02 10:39:45;;;;;;;12.85;2.97;;;;;;;16.22;85.54;101800.84;5011699;28;20072;-80
2022/10/02 10:42:29;;;;;;;11.65;2.70;;;;;;;16.16;83.69;101809.94;5011249;28;20468;-81
2022/10/02 10:45:39;;;;;;;12.40;2.72;;;;;;;16.15;82.14;101812.66;5011181;28;20179;-80
2022/10/02 10:48:35;;;;;;;15.00;3.22;;;;;;;16.12;83.88;101816.28;4998456;28;20117;-81
2022/10/02 10:51:19;;;;;;;12.43;3.28;;;;;;;16.09;84.65;101815.69;5011166;28;20045;-82
2022/10/02 10:54:13;;;;;;;12.20;3.15;;;;;;;16.15;82.30;101813.50;4994747;28;20030;-82
2022/10/02 10:57:40;;;;;;;10.07;2.58;;;;;;;16.26;84.92;101821.38;5011177;28;20045;-80
2022/10/02 11:00:15;;;;;;;12.50;2.78;;;;;;;16.30;82.99;101793.31;4952853;29;20074;-78
2022/10/02 11:02:55;;;;;;;16.25;3.50;;;;;;;16.61;81.20;101797.13;4952591;29;20043;-79
2022/10/02 11:05:39;;;;;;;13.33;2.23;;;;;;;16.98;78.05;101804.91;4952527;29;20055;-80
2022/10/02 11:08:19;;;;;;;12.57;2.28;;;;;;;17.17;74.96;101810.41;4993634;28;20381;-81
2022/10/02 11:11:16;;;;;;;10.13;1.93;;;;;;;17.30;75.60;101824.19;5050767;28;20416;-78
2022/10/02 11:14:00;;;;;;;11.50;2.30;;;;;;;17.37;73.48;101809.75;5050558;28;20279;-76
2022/10/02 11:16:56;;;;;;;10.43;2.58;;;;;;;17.48;73.55;101819.38;5050130;28;20094;-78
2022/10/02 11:20:05;;;;;;;14.00;3.05;;;;;;;17.59;74.37;101821.97;5050612;28;20063;-81
2022/10/02 11:22:52;;;;;;;11.18;2.63;;;;;;;17.49;74.29;101800.97;5010629;28;20026;-82
2022/10/02 11:25:44;;;;;;;14.43;2.42;;;;;;;17.52;76.15;101818.19;5010951;28;20391;-78
2022/10/02 11:28:57;;;;;;;13.57;2.70;;;;;;;17.37;73.47;101832.41;5010799;28;20066;-79
2022/10/02 11:31:40;;;;;;;10.93;2.78;;;;;;;17.11;74.19;101830.00;4952387;28;20043;-80
2022/10/02 11:34:32;;;;;;;9.43;2.33;;;;;;;16.90;75.73;101829.78;4982801;28;20038;-80
2022/10/02 11:37:43;;;;;;;17.88;3.40;;;;;;;16.66;76.21;101841.16;4994915;28;20093;-81
2022/10/02 11:40:46;;;;;;;11.30;2.50;;;;;;;16.50;77.65;101844.03;4993633;28;20038;-79
2022/10/02 11:43:42;;;;;;;14.60;2.90;;;;;;;16.41;77.71;101844.69;4995033;28;20058;-76
2022/10/02 11:46:42;;;;;;;12.20;2.40;;;;;;;16.39;76.90;101843.97;4994409;28;20057;-80
2022/10/02 11:49:33;;;;;;;14.85;2.85;;;;;;;16.50;77.77;101851.84;4994673;28;20534;-82
2022/10/02 11:52:17;;;;;;;12.05;2.67;;;;;;;16.43;77.44;101827.19;4994379;28;20034;-82
2022/10/02 11:55:17;;;;;;;16.92;3.10;;;;;;;16.62;77.30;101845.78;4994444;28;20074;-81
2022/10/02 11:57:46;;;;;;;10.45;2.92;;;;;;;16.73;75.68;101848.47;5053757;28;20040;-76
2022/10/02 12:00:37;;;;;;;10.32;2.15;;;;;;;16.94;75.51;101853.06;5053836;28;20029;-77
2022/10/02 12:03:16;;;;;;;9.20;2.30;;;;;;;16.96;73.98;101846.78;5054198;28;20392;-80
2022/10/02 12:05:41;;;;;;;15.18;3.28;;;;;;;17.04;74.47;101848.81;5053773;28;20051;-82
2022/10/02 12:08:29;;;;;;;12.70;2.38;;;;;;;17.26;75.67;101859.31;5073835;28;20032;-85
2022/10/02 12:10:54;;;;;;;10.15;2.83;;;;;;;17.40;73.21;101855.66;5096268;28;20062;-87
2022/10/02 12:13:34;;;;;;;14.25;2.40;;;;;;;17.56;73.09;101852.75;5096130;28;20032;-80
2022/10/02 12:16:14;;;;;;;13.52;2.70;;;;;;;17.56;72.19;101839.69;5094228;28;20036;-83
2022/10/02 12:19:01;;;;;;;11.73;3.00;;;;;;;17.58;71.83;101856.06;5095838;28;20020;-86
2022/10/02 12:28:10;;;;;;;11.75;2.50;;;;;;;17.13;71.47;101861.19;5095703;28;20028;-88